Time;durP1;ratioP1;P1;durP2;ratioP2;P2;SDS_P1;SDS_P2;PMS_P1;PMS_P2;Temp;Humidity;BMP_temperature;BMP_pressure;BME280_temperature;BME280_humidity;BME280_pressure;Samples;Min_cycle;Max_cycle;Signal;HPM_P1;HPM_P2
2022/05/10 00:01:27;;;;;;;0.85;0.85;;;13.70;67.00;;;;;;5015445;28;20188;-73
2022/05/10 00:03:53;;;;;;;1.08;0.82;;;13.70;67.20;;;;;;5009770;28;20188;-73
2022/05/10 00:06:19;;;;;;;0.75;0.63;;;13.60;67.10;;;;;;5010605;28;20181;-74
2022/05/10 00:08:46;;;;;;;0.95;0.68;;;13.60;67.70;;;;;;5014202;28;20200;-73
2022/05/10 00:11:12;;;;;;;0.65;0.65;;;13.60;68.20;;;;;;5014781;28;20601;-74
2022/05/10 00:13:39;;;;;;;0.93;0.75;;;13.70;68.60;;;;;;5015433;28;20241;-74
2022/05/10 00:16:09;;;;;;;0.40;0.40;;;13.60;68.00;;;;;;5048328;28;20256;-74
2022/05/10 00:18:35;;;;;;;0.80;0.80;;;13.60;68.20;;;;;;5011649;28;20280;-75
2022/05/10 00:21:01;;;;;;;1.20;0.60;;;13.60;68.30;;;;;;5015771;28;20185;-74
2022/05/10 00:23:27;;;;;;;0.50;0.50;;;13.60;68.40;;;;;;5011420;28;20206;-74
2022/05/10 00:25:52;;;;;;;0.50;0.50;;;13.50;68.10;;;;;;5007560;28;20229;-75
2022/05/10 00:28:18;;;;;;;0.55;0.55;;;13.50;68.00;;;;;;5013524;28;20189;-74
2022/05/10 00:30:44;;;;;;;0.77;0.65;;;;;;;;;;5014171;28;20216;-75
2022/05/10 00:33:17;;;;;;;0.52;0.52;;;13.40;68.10;;;;;;5013597;28;20191;-74
2022/05/10 00:35:42;;;;;;;1.30;0.90;;;13.40;68.30;;;;;;5006595;28;20181;-74
2022/05/10 00:38:08;;;;;;;1.15;0.98;;;13.40;68.70;;;;;;5014058;28;20192;-74
2022/05/10 00:40:36;;;;;;;0.90;0.90;;;13.40;68.90;;;;;;5011414;28;20864;-74
2022/05/10 00:43:24;;;;;;;0.82;0.82;;;13.40;69.20;;;;;;5011020;28;20270;-74
2022/05/10 00:46:06;;;;;;;0.85;0.85;;;13.30;69.30;;;;;;5013437;28;20180;-75
2022/05/10 00:48:53;;;;;;;0.90;0.90;;;13.30;69.20;;;;;;5013590;28;20188;-75
2022/05/10 00:51:35;;;;;;;1.40;0.98;;;13.30;69.40;;;;;;5012369;28;20245;-75
2022/05/10 00:54:07;;;;;;;4.18;0.55;;;13.20;69.40;;;;;;5005058;28;20347;-75
2022/05/10 00:56:33;;;;;;;1.10;0.80;;;13.20;69.70;;;;;;5010880;28;20943;-75
2022/05/10 00:59:14;;;;;;;0.95;0.77;;;13.20;70.20;;;;;;5005027;28;20197;-76
2022/05/10 01:01:43;;;;;;;0.90;0.70;;;13.20;70.90;;;;;;5010945;28;21488;-75
2022/05/10 01:04:14;;;;;;;1.50;0.70;;;13.10;70.80;;;;;;5018828;28;20342;-75
2022/05/10 01:07:01;;;;;;;0.68;0.68;;;13.10;70.80;;;;;;5002487;28;20185;-75
2022/05/10 01:09:27;;;;;;;1.20;0.70;;;13.00;71.10;;;;;;5006578;28;20196;-75
2022/05/10 01:12:07;;;;;;;1.75;0.50;;;13.00;71.40;;;;;;5009898;28;20966;-75
2022/05/10 01:14:58;;;;;;;1.38;0.63;;;12.90;71.50;;;;;;5009890;28;20188;-75
2022/05/10 01:17:24;;;;;;;0.73;0.73;;;12.90;71.60;;;;;;5008127;28;20227;-75
2022/05/10 01:19:50;;;;;;;0.70;0.70;;;12.90;71.60;;;;;;5011065;28;20188;-75
2022/05/10 01:22:37;;;;;;;2.20;0.80;;;12.80;71.40;;;;;;5010065;28;20177;-74
2022/05/10 01:25:18;;;;;;;2.88;1.15;;;12.70;72.00;;;;;;5012666;28;20187;-75
2022/05/10 01:28:05;;;;;;;1.17;1.17;;;12.70;73.80;;;;;;5012765;28;20173;-75
2022/05/10 01:30:31;;;;;;;1.55;1.35;;;12.60;73.10;;;;;;5008422;28;20217;-75
2022/05/10 01:35:57;;;;;;;2.50;1.30;;;12.50;73.10;;;;;;5010107;28;20277;-75
2022/05/10 01:38:36;;;;;;;1.88;1.05;;;12.50;72.90;;;;;;5007719;28;20188;-75
2022/05/10 01:41:09;;;;;;;1.75;1.17;;;12.50;73.00;;;;;;5012262;28;20188;-74
2022/05/10 01:43:35;;;;;;;1.40;1.30;;;12.40;73.10;;;;;;5014920;28;20191;-75
2022/05/10 01:46:09;;;;;;;1.38;0.90;;;12.40;73.00;;;;;;5016147;28;20185;-75
2022/05/10 01:48:38;;;;;;;0.90;0.90;;;12.30;73.10;;;;;;5014201;28;20185;-75
2022/05/10 01:51:18;;;;;;;1.00;1.00;;;12.30;73.10;;;;;;5011191;28;20299;-74
2022/05/10 01:53:45;;;;;;;2.58;1.00;;;12.30;73.40;;;;;;5011344;28;20185;-75
2022/05/10 01:56:13;;;;;;;2.28;1.35;;;12.30;73.20;;;;;;5020154;28;20181;-74
2022/05/10 01:58:41;;;;;;;1.30;1.27;;;12.20;73.30;;;;;;5015233;28;20180;-76
2022/05/10 02:01:19;;;;;;;3.70;1.07;;;12.20;73.10;;;;;;5018554;28;20192;-75
2022/05/10 02:04:00;;;;;;;1.05;1.00;;;12.20;73.30;;;;;;5035040;28;20698;-74
2022/05/10 02:06:34;;;;;;;1.35;1.20;;;12.20;73.50;;;;;;5011639;28;20184;-74
2022/05/10 02:09:27;;;;;;;1.05;1.05;;;12.10;73.70;;;;;;5011789;28;20199;-75
2022/05/10 02:12:00;;;;;;;1.33;1.08;;;12.10;74.10;;;;;;5012106;28;20208;-74
2022/05/10 02:14:39;;;;;;;1.20;1.20;;;12.10;75.20;;;;;;5016223;28;20657;-74
2022/05/10 02:17:15;;;;;;;1.67;1.27;;;12.10;74.70;;;;;;5016812;28;20644;-74
2022/05/10 02:20:00;;;;;;;1.88;0.93;;;12.00;74.30;;;;;;5018100;28;20211;-73
2022/05/10 02:22:30;;;;;;;1.40;1.30;;;12.00;74.20;;;;;;5023563;28;20189;-75
2022/05/10 02:24:58;;;;;;;0.85;0.85;;;12.00;74.20;;;;;;5013520;28;20177;-74
2022/05/10 02:27:41;;;;;;;1.23;1.13;;;11.90;74.40;;;;;;5009138;28;20185;-74
2022/05/10 02:30:08;;;;;;;7.18;1.38;;;11.90;74.70;;;;;;5010404;28;20200;-75
2022/05/10 02:35:54;;;;;;;1.70;1.20;;;11.90;75.50;;;;;;5012984;28;20193;-77
2022/05/10 02:38:24;;;;;;;1.07;1.07;;;11.90;75.40;;;;;;5014305;28;20295;-72
2022/05/10 02:40:52;;;;;;;1.00;1.00;;;11.90;75.20;;;;;;5008464;28;20189;-72
2022/05/10 02:43:24;;;;;;;1.50;1.40;;;11.90;75.70;;;;;;5008161;28;20177;-73
2022/05/10 02:45:50;;;;;;;1.55;1.27;;;11.90;75.80;;;;;;5015204;28;20971;-73
2022/05/10 02:48:28;;;;;;;0.90;0.90;;;11.80;75.90;;;;;;5010701;28;20180;-73
2022/05/10 02:50:54;;;;;;;1.30;1.03;;;11.80;75.90;;;;;;5013241;28;20218;-73
2022/05/10 02:53:21;;;;;;;3.37;1.37;;;11.80;75.90;;;;;;5011271;28;20193;-73
2022/05/10 02:55:55;;;;;;;2.87;1.27;;;11.70;76.10;;;;;;5013630;28;20185;-72
2022/05/10 02:58:29;;;;;;;5.80;1.60;;;11.70;76.10;;;;;;5048764;28;20203;-73
2022/05/10 03:01:04;;;;;;;2.17;1.20;;;11.70;76.00;;;;;;5013767;28;20622;-73
2022/05/10 03:03:31;;;;;;;1.13;1.10;;;11.60;76.10;;;;;;5044858;28;20188;-73
2022/05/10 03:05:57;;;;;;;4.47;1.57;;;11.60;76.20;;;;;;5007034;28;20209;-73
2022/05/10 03:08:23;;;;;;;1.10;1.07;;;11.50;76.00;;;;;;5010551;28;20592;-73
2022/05/10 03:10:49;;;;;;;1.27;1.17;;;11.50;76.10;;;;;;5011325;28;20220;-73
2022/05/10 03:13:15;;;;;;;1.47;1.33;;;11.50;76.10;;;;;;5010122;28;20256;-73
2022/05/10 03:15:41;;;;;;;2.00;1.23;;;11.50;76.50;;;;;;5013868;28;20618;-72
2022/05/10 03:18:08;;;;;;;2.03;1.30;;;11.50;76.60;;;;;;5014223;28;20193;-73
2022/05/10 03:20:34;;;;;;;2.93;1.37;;;11.50;76.70;;;;;;5015172;28;20263;-73
2022/05/10 03:23:00;;;;;;;1.13;1.13;;;;;;;;;;5016916;28;20742;-72
2022/05/10 03:25:29;;;;;;;3.13;1.70;;;11.40;76.40;;;;;;5011838;28;20192;-71
2022/05/10 03:27:54;;;;;;;1.90;1.07;;;11.40;76.60;;;;;;5014321;28;20190;-72
2022/05/10 03:30:20;;;;;;;1.70;1.70;;;;;;;;;;5006190;28;20205;-72
2022/05/10 03:32:46;;;;;;;1.10;1.10;;;11.40;76.30;;;;;;5007323;28;20658;-73
2022/05/10 03:35:15;;;;;;;3.50;1.23;;;11.40;76.40;;;;;;5008675;28;20284;-73
2022/05/10 03:37:41;;;;;;;1.33;1.30;;;11.40;76.60;;;;;;5014778;28;20263;-72
2022/05/10 03:40:08;;;;;;;2.35;1.25;;;11.40;76.80;;;;;;5015234;28;20287;-73
2022/05/10 03:42:34;;;;;;;3.60;1.30;;;;;;;;;;5012740;28;20265;-72
2022/05/10 03:44:59;;;;;;;1.00;1.00;;;11.40;77.00;;;;;;5013499;28;20681;-72
2022/05/10 03:47:26;;;;;;;1.83;1.73;;;11.40;77.00;;;;;;5010965;28;20230;-73
2022/05/10 03:49:53;;;;;;;0.70;0.70;;;11.40;76.90;;;;;;5012777;28;20717;-73
2022/05/10 03:52:19;;;;;;;0.87;0.70;;;11.40;77.00;;;;;;5014012;28;20279;-72
2022/05/10 03:54:46;;;;;;;1.50;0.90;;;;;;;;;;5012473;28;20670;-72
2022/05/10 03:57:12;;;;;;;1.60;1.13;;;11.40;77.50;;;;;;5009105;28;20185;-72
2022/05/10 03:59:41;;;;;;;1.23;0.90;;;11.50;77.30;;;;;;5013018;28;20200;-72
2022/05/10 04:02:11;;;;;;;3.40;1.17;;;11.50;77.40;;;;;;5042101;28;20192;-72
2022/05/10 04:04:37;;;;;;;1.53;1.00;;;11.40;76.90;;;;;;5017062;28;20184;-72
2022/05/10 04:07:04;;;;;;;1.03;1.03;;;11.40;77.10;;;;;;5010526;28;20701;-73
2022/05/10 04:09:29;;;;;;;0.60;0.60;;;11.40;77.30;;;;;;5004731;28;20185;-73
2022/05/10 04:11:55;;;;;;;0.90;0.80;;;11.40;77.20;;;;;;5017228;28;20181;-73
2022/05/10 04:14:21;;;;;;;1.80;0.40;;;;;;;;;;5006645;28;20280;-73
2022/05/10 04:16:47;;;;;;;0.77;0.77;;;11.50;77.20;;;;;;5009133;28;20188;-72
2022/05/10 04:19:13;;;;;;;0.80;0.80;;;;;;;;;;5012281;28;20685;-72
2022/05/10 04:21:39;;;;;;;1.37;1.23;;;11.50;76.70;;;;;;5004042;28;20193;-73
2022/05/10 04:24:05;;;;;;;0.70;0.70;;;11.50;77.00;;;;;;5007028;28;20910;-73
2022/05/10 04:26:31;;;;;;;3.23;0.93;;;11.60;76.60;;;;;;5009208;28;20265;-73
2022/05/10 04:28:57;;;;;;;0.87;0.77;;;;;;;;;;5013831;28;20262;-73
2022/05/10 04:31:23;;;;;;;0.60;0.60;;;11.70;76.70;;;;;;5009879;28;20807;-73
2022/05/10 04:33:49;;;;;;;3.57;0.83;;;11.70;76.50;;;;;;5006699;28;20871;-71
2022/05/10 04:36:15;;;;;;;2.00;0.70;;;11.80;76.60;;;;;;5016212;28;20256;-71
2022/05/10 04:38:40;;;;;;;6.20;1.20;;;11.80;76.60;;;;;;5015911;28;20192;-71
2022/05/10 04:41:26;;;;;;;0.70;0.70;;;11.90;76.60;;;;;;5019291;28;20208;-71
2022/05/10 04:43:58;;;;;;;0.87;0.80;;;11.90;76.60;;;;;;5014432;28;20180;-71
2022/05/10 04:46:24;;;;;;;0.73;0.73;;;11.90;76.50;;;;;;5023405;28;20727;-73
2022/05/10 04:48:50;;;;;;;4.93;0.87;;;12.00;76.30;;;;;;5015226;28;20226;-73
2022/05/10 04:51:16;;;;;;;0.73;0.70;;;12.00;76.50;;;;;;5008518;28;20635;-73
2022/05/10 04:53:42;;;;;;;1.50;0.90;;;12.10;76.70;;;;;;5007461;28;20641;-73
2022/05/10 04:56:08;;;;;;;0.80;0.80;;;12.10;77.20;;;;;;5010692;28;22142;-73
2022/05/10 04:58:34;;;;;;;0.60;0.60;;;12.10;76.80;;;;;;5008300;28;20678;-77
2022/05/10 05:01:07;;;;;;;2.95;1.23;;;12.10;76.30;;;;;;5012329;28;20219;-77
2022/05/10 05:03:35;;;;;;;1.10;1.07;;;12.10;76.50;;;;;;5047374;28;20179;-75
2022/05/10 05:06:01;;;;;;;0.87;0.80;;;12.20;76.70;;;;;;5013704;28;20212;-77
2022/05/10 05:08:27;;;;;;;1.35;1.25;;;12.20;77.20;;;;;;5015541;28;20729;-76
2022/05/10 05:10:56;;;;;;;3.13;0.95;;;12.30;77.10;;;;;;5015303;28;20250;-75
2022/05/10 05:13:24;;;;;;;1.00;1.00;;;12.30;77.00;;;;;;5039400;28;20192;-75
2022/05/10 05:15:50;;;;;;;1.80;0.88;;;12.40;76.50;;;;;;5015153;28;20176;-76
2022/05/10 05:18:16;;;;;;;1.00;1.00;;;;;;;;;;5015820;28;20193;-76
2022/05/10 05:20:42;;;;;;;1.80;1.20;;;12.50;75.70;;;;;;5018866;28;20286;-75
2022/05/10 05:23:09;;;;;;;0.67;0.67;;;12.50;75.50;;;;;;5021464;28;20181;-75
2022/05/10 05:25:40;;;;;;;0.90;0.90;;;12.50;75.30;;;;;;5015089;28;20173;-75
2022/05/10 05:28:06;;;;;;;1.98;0.88;;;12.50;75.30;;;;;;5047411;28;20275;-74
2022/05/10 05:30:33;;;;;;;3.92;1.23;;;12.60;75.50;;;;;;5020076;28;20180;-74
2022/05/10 05:32:59;;;;;;;3.33;1.03;;;12.60;75.50;;;;;;5045358;28;20324;-77
2022/05/10 05:35:26;;;;;;;1.02;1.02;;;12.60;74.90;;;;;;5012043;28;20181;-73
2022/05/10 05:37:52;;;;;;;1.05;0.88;;;12.70;74.80;;;;;;5020067;28;20677;-76
2022/05/10 05:40:18;;;;;;;2.15;0.80;;;12.70;74.40;;;;;;5011633;28;20238;-73
2022/05/10 05:42:44;;;;;;;0.77;0.77;;;12.80;74.50;;;;;;5014014;28;20192;-73
2022/05/10 05:45:12;;;;;;;0.90;0.90;;;12.90;74.20;;;;;;5015314;28;20235;-72
2022/05/10 05:47:39;;;;;;;0.90;0.90;;;12.90;74.30;;;;;;5030242;28;20184;-73
2022/05/10 05:50:06;;;;;;;0.90;0.90;;;13.00;74.10;;;;;;5012952;28;20184;-73
2022/05/10 05:52:31;;;;;;;3.17;0.90;;;13.00;73.90;;;;;;5011240;28;20216;-73
2022/05/10 05:54:58;;;;;;;0.90;0.90;;;;;;;;;;5021005;28;20215;-73
2022/05/10 05:57:25;;;;;;;2.13;0.70;;;13.20;73.80;;;;;;5016604;28;20661;-73
2022/05/10 05:59:56;;;;;;;0.95;0.95;;;13.20;73.90;;;;;;5010878;28;20204;-73
2022/05/10 06:02:24;;;;;;;1.17;0.85;;;13.30;74.00;;;;;;5036524;28;20187;-73
2022/05/10 06:04:49;;;;;;;2.05;1.25;;;13.40;74.90;;;;;;5016050;28;20192;-73
2022/05/10 06:07:16;;;;;;;1.55;0.90;;;13.50;74.60;;;;;;5014234;28;20180;-73
2022/05/10 06:09:43;;;;;;;0.98;0.90;;;13.60;75.00;;;;;;5044970;28;20189;-73
2022/05/10 06:12:11;;;;;;;0.90;0.90;;;13.60;74.00;;;;;;5013485;28;20181;-73
2022/05/10 06:14:38;;;;;;;0.82;0.82;;;13.70;73.80;;;;;;5020275;28;20737;-73
2022/05/10 06:17:05;;;;;;;0.80;0.80;;;13.80;73.90;;;;;;5015973;28;20188;-73
2022/05/10 06:19:33;;;;;;;0.82;0.82;;;13.80;73.90;;;;;;5015492;28;20565;-72
2022/05/10 06:21:58;;;;;;;1.33;1.23;;;13.90;73.90;;;;;;5020696;28;20291;-73
2022/05/10 06:24:25;;;;;;;6.55;2.03;;;14.00;73.80;;;;;;5021512;28;20334;-72
2022/05/10 06:26:51;;;;;;;1.73;1.60;;;14.10;73.40;;;;;;5018897;28;20181;-72
2022/05/10 06:29:17;;;;;;;0.95;0.95;;;14.20;72.90;;;;;;5016532;28;20189;-72
2022/05/10 06:31:44;;;;;;;2.92;1.23;;;14.30;72.90;;;;;;5017144;28;20185;-73
2022/05/10 06:34:10;;;;;;;0.88;0.88;;;14.40;72.20;;;;;;5021046;28;20956;-73
2022/05/10 06:36:37;;;;;;;1.35;1.25;;;14.50;72.60;;;;;;5017767;28;20211;-74
2022/05/10 06:39:04;;;;;;;1.10;1.00;;;14.60;72.70;;;;;;5013952;28;20176;-74
2022/05/10 06:41:33;;;;;;;0.85;0.85;;;14.60;72.60;;;;;;5020816;28;20724;-74
2022/05/10 06:43:59;;;;;;;1.48;1.38;;;14.70;72.40;;;;;;5017463;28;20256;-73
2022/05/10 06:46:27;;;;;;;1.55;1.45;;;14.80;73.00;;;;;;5019782;28;20180;-73
2022/05/10 06:48:53;;;;;;;1.25;1.15;;;14.90;73.00;;;;;;5016537;28;20187;-73
2022/05/10 06:51:24;;;;;;;1.85;1.13;;;15.00;72.60;;;;;;5016077;28;20404;-73
2022/05/10 06:53:50;;;;;;;1.23;0.77;;;15.00;71.50;;;;;;5012282;28;20835;-73
2022/05/10 06:56:17;;;;;;;1.00;1.00;;;15.10;71.40;;;;;;5021266;28;20187;-73
2022/05/10 06:58:44;;;;;;;1.88;1.48;;;15.20;71.30;;;;;;5050455;28;20176;-72
2022/05/10 07:01:12;;;;;;;1.50;1.25;;;15.30;71.00;;;;;;5020722;28;20216;-73
2022/05/10 07:03:40;;;;;;;1.70;1.15;;;15.30;70.80;;;;;;5016466;28;20177;-74
2022/05/10 07:06:08;;;;;;;0.88;0.88;;;15.50;70.60;;;;;;5012290;28;20176;-72
2022/05/10 07:08:34;;;;;;;1.88;1.50;;;15.50;70.30;;;;;;5012812;28;20617;-72
2022/05/10 07:11:00;;;;;;;1.15;1.15;;;15.60;70.20;;;;;;5015242;28;20195;-74
2022/05/10 07:13:29;;;;;;;3.47;1.52;;;15.70;69.00;;;;;;5015589;28;20188;-74
2022/05/10 07:15:55;;;;;;;1.30;1.13;;;15.80;68.50;;;;;;5027719;28;20215;-73
2022/05/10 07:18:21;;;;;;;1.17;1.17;;;15.80;68.80;;;;;;5013775;28;20220;-73
2022/05/10 07:20:48;;;;;;;1.35;1.33;;;15.90;69.00;;;;;;5012188;28;20577;-73
2022/05/10 07:23:18;;;;;;;1.27;1.13;;;16.00;69.10;;;;;;5013240;28;20189;-73
2022/05/10 07:25:44;;;;;;;1.27;1.15;;;16.10;68.70;;;;;;5008758;28;20327;-73
2022/05/10 07:28:10;;;;;;;4.15;1.40;;;;;;;;;;5020597;28;20236;-73
2022/05/10 07:30:37;;;;;;;1.27;1.27;;;16.20;67.90;;;;;;5014278;28;20176;-74
2022/05/10 07:33:03;;;;;;;2.70;1.35;;;16.30;67.30;;;;;;5010821;28;20181;-74
2022/05/10 07:38:16;;;;;;;1.10;1.10;;;16.50;67.50;;;;;;5018453;28;20218;-72
2022/05/10 07:40:44;;;;;;;3.08;1.13;;;16.60;67.80;;;;;;5014464;28;20295;-73
2022/05/10 07:43:12;;;;;;;1.13;1.13;;;16.70;67.20;;;;;;5038341;28;20307;-73
2022/05/10 07:45:40;;;;;;;1.90;1.17;;;16.80;66.30;;;;;;5015592;28;20219;-72
2022/05/10 07:48:06;;;;;;;2.65;1.30;;;16.90;66.50;;;;;;5010888;28;20181;-73
2022/05/10 07:50:33;;;;;;;1.05;1.02;;;16.90;66.20;;;;;;5012977;28;20239;-73
2022/05/10 07:53:00;;;;;;;1.40;0.82;;;17.10;66.30;;;;;;5011763;28;20180;-73
2022/05/10 07:55:26;;;;;;;1.20;1.10;;;17.10;66.60;;;;;;5029479;28;20180;-73
2022/05/10 07:57:52;;;;;;;1.33;1.30;;;17.20;66.00;;;;;;5016900;28;20191;-73
2022/05/10 08:00:18;;;;;;;1.38;1.00;;;17.40;66.10;;;;;;5016156;28;20289;-72
2022/05/10 08:02:44;;;;;;;4.35;1.10;;;17.50;65.80;;;;;;5014708;28;20243;-73
2022/05/10 08:05:12;;;;;;;3.45;0.90;;;17.60;64.30;;;;;;5011489;28;20168;-72
2022/05/10 08:07:38;;;;;;;1.10;1.00;;;17.70;63.90;;;;;;5010975;28;20184;-73
2022/05/10 08:10:04;;;;;;;3.03;0.77;;;17.70;63.80;;;;;;5016252;28;20184;-73
2022/05/10 08:12:30;;;;;;;1.75;0.82;;;17.80;63.20;;;;;;5017150;28;20246;-73
2022/05/10 08:14:56;;;;;;;0.60;0.57;;;18.00;63.30;;;;;;5010477;28;20199;-73
2022/05/10 08:17:22;;;;;;;0.70;0.70;;;;;;;;;;5012357;28;20188;-73
2022/05/10 08:19:50;;;;;;;0.40;0.40;;;18.20;64.10;;;;;;5018732;28;20304;-73
2022/05/10 08:22:16;;;;;;;0.50;0.50;;;18.30;63.40;;;;;;5014441;28;20212;-74
2022/05/10 08:24:42;;;;;;;0.52;0.52;;;18.40;61.90;;;;;;5011195;28;20623;-73
2022/05/10 08:27:08;;;;;;;0.85;0.85;;;18.50;60.80;;;;;;5016262;28;20189;-73
2022/05/10 08:29:34;;;;;;;0.85;0.60;;;18.60;60.80;;;;;;5009974;28;20702;-73
2022/05/10 08:32:00;;;;;;;0.75;0.75;;;18.70;61.00;;;;;;5011388;28;20183;-73
2022/05/10 08:34:27;;;;;;;0.60;0.60;;;18.80;60.00;;;;;;5014757;28;20212;-73
2022/05/10 08:36:53;;;;;;;1.05;0.70;;;19.00;61.10;;;;;;5010897;28;20184;-73
2022/05/10 08:39:19;;;;;;;0.45;0.45;;;19.10;59.70;;;;;;5010207;28;20192;-73
2022/05/10 08:41:47;;;;;;;0.60;0.60;;;19.20;58.70;;;;;;5013508;28;20267;-73
2022/05/10 08:44:22;;;;;;;0.60;0.52;;;19.20;56.60;;;;;;5014335;28;20212;-73
2022/05/10 08:47:10;;;;;;;0.65;0.65;;;19.30;57.70;;;;;;5013876;28;20530;-73
2022/05/10 08:49:40;;;;;;;0.60;0.45;;;19.40;58.00;;;;;;5010967;28;20266;-73
2022/05/10 08:52:07;;;;;;;1.00;0.50;;;19.50;58.40;;;;;;5016818;28;20188;-73
2022/05/10 08:54:37;;;;;;;0.30;0.30;;;19.60;59.10;;;;;;5014878;28;20258;-73
2022/05/10 08:57:35;;;;;;;0.40;0.40;;;19.80;57.70;;;;;;5013073;28;20188;-73
2022/05/10 09:00:07;;;;;;;1.05;0.60;;;20.00;57.30;;;;;;5016041;28;20204;-74
2022/05/10 09:02:42;;;;;;;0.80;0.80;;;20.10;57.40;;;;;;5018436;28;20199;-73
2022/05/10 09:05:41;;;;;;;0.52;0.52;;;20.20;59.00;;;;;;5009316;28;20693;-73
2022/05/10 09:08:06;;;;;;;0.50;0.50;;;20.30;55.50;;;;;;5012238;28;20191;-73
2022/05/10 09:10:57;;;;;;;0.63;0.63;;;20.50;56.90;;;;;;5012057;28;20181;-73
2022/05/10 09:13:23;;;;;;;1.65;0.60;;;20.70;56.90;;;;;;5012541;28;20180;-73
2022/05/10 09:15:52;;;;;;;0.50;0.50;;;20.70;55.50;;;;;;5011735;28;20227;-72
2022/05/10 09:18:25;;;;;;;0.77;0.40;;;20.80;56.60;;;;;;5013966;28;20306;-73
2022/05/10 09:21:13;;;;;;;0.50;0.50;;;21.00;57.00;;;;;;5014779;28;20258;-72
2022/05/10 09:23:58;;;;;;;0.75;0.75;;;21.20;57.50;;;;;;5009779;28;20213;-73
2022/05/10 09:26:32;;;;;;;3.40;0.57;;;21.40;55.70;;;;;;5007918;28;20565;-73
2022/05/10 09:29:07;;;;;;;1.35;0.95;;;21.50;54.60;;;;;;5038990;28;20207;-72
2022/05/10 09:34:46;;;;;;;1.13;0.43;;;21.80;55.90;;;;;;5021710;28;20215;-72
2022/05/10 09:37:32;;;;;;;2.85;0.77;;;22.10;56.60;;;;;;5024836;28;20299;-74
2022/05/10 09:39:57;;;;;;;0.82;0.82;;;22.30;55.20;;;;;;5032806;28;20228;-73
2022/05/10 09:42:27;;;;;;;0.80;0.80;;;22.50;55.00;;;;;;5023103;28;20180;-72
2022/05/10 09:45:00;;;;;;;0.50;0.50;;;22.70;54.10;;;;;;5024202;28;20693;-73
2022/05/10 09:47:26;;;;;;;0.70;0.70;;;22.90;54.70;;;;;;5032432;28;20212;-73
2022/05/10 09:49:52;;;;;;;2.40;0.90;;;23.10;53.50;;;;;;5032556;28;20184;-73
2022/05/10 09:52:25;;;;;;;0.70;0.70;;;23.40;52.50;;;;;;5015458;28;20875;-73
2022/05/10 09:54:56;;;;;;;1.20;0.70;;;23.70;52.90;;;;;;5026963;28;20592;-73
2022/05/10 09:57:34;;;;;;;6.10;0.80;;;24.00;52.90;;;;;;5025849;28;20199;-73
2022/05/10 10:00:00;;;;;;;1.75;0.77;;;24.50;52.40;;;;;;5023344;28;20302;-73
2022/05/10 10:02:38;;;;;;;0.68;0.68;;;25.00;51.60;;;;;;5027789;28;20183;-73
2022/05/10 10:05:34;;;;;;;0.88;0.82;;;25.70;50.20;;;;;;5031603;28;20905;-72
2022/05/10 10:08:00;;;;;;;0.80;0.80;;;26.40;49.90;;;;;;5031657;28;20184;-73
2022/05/10 10:10:30;;;;;;;3.75;0.80;;;27.00;48.50;;;;;;5026547;28;20292;-74
2022/05/10 10:12:56;;;;;;;6.05;1.10;;;27.60;47.00;;;;;;5013748;28;20177;-73
2022/05/10 10:15:40;;;;;;;0.60;0.60;;;27.80;47.00;;;;;;5020303;28;20172;-73
2022/05/10 10:18:11;;;;;;;1.23;0.70;;;29.30;45.30;;;;;;5017837;28;20199;-74
2022/05/10 10:20:43;;;;;;;1.17;0.88;;;29.30;44.80;;;;;;5031504;28;20648;-73
2022/05/10 10:23:36;;;;;;;0.52;0.52;;;29.60;43.90;;;;;;5012259;28;20192;-73
2022/05/10 10:26:06;;;;;;;0.73;0.73;;;29.80;45.10;;;;;;5011494;28;20608;-73
2022/05/10 10:28:54;;;;;;;1.10;0.63;;;30.00;45.60;;;;;;5016286;28;20172;-73
2022/05/10 10:31:27;;;;;;;2.28;0.50;;;30.10;43.60;;;;;;5012668;28;20285;-73
2022/05/10 10:34:14;;;;;;;0.60;0.60;;;30.50;43.10;;;;;;5013479;28;20690;-73
2022/05/10 10:36:56;;;;;;;0.85;0.75;;;30.70;42.60;;;;;;5014537;28;20180;-73
2022/05/10 10:39:34;;;;;;;0.70;0.70;;;31.10;43.50;;;;;;5014894;28;20189;-74
2022/05/10 10:42:01;;;;;;;2.03;0.65;;;;;;;;;;5011144;28;20188;-74
2022/05/10 10:44:31;;;;;;;0.70;0.70;;;31.60;44.20;;;;;;5009149;28;20710;-74
2022/05/10 10:47:20;;;;;;;0.60;0.60;;;31.80;42.80;;;;;;5004300;28;20273;-74
2022/05/10 10:49:57;;;;;;;1.00;0.70;;;32.10;42.50;;;;;;5012721;28;20181;-75
2022/05/10 10:52:24;;;;;;;0.90;0.70;;;32.30;42.20;;;;;;5007923;28;20276;-73
2022/05/10 10:54:50;;;;;;;0.57;0.57;;;32.30;42.20;;;;;;5013878;28;20181;-73
2022/05/10 10:57:37;;;;;;;1.35;0.68;;;32.50;42.10;;;;;;5011545;28;20707;-73
2022/05/10 11:00:03;;;;;;;0.68;0.68;;;;;;;;;;5014282;28;20213;-73
2022/05/10 11:02:58;;;;;;;0.70;0.70;;;33.20;41.80;;;;;;5015739;28;20187;-74
2022/05/10 11:05:34;;;;;;;0.68;0.68;;;33.50;40.10;;;;;;5014842;28;20671;-74
2022/05/10 11:08:34;;;;;;;0.60;0.60;;;33.70;40.00;;;;;;5008599;28;20251;-74
2022/05/10 11:11:31;;;;;;;0.60;0.60;;;33.70;38.80;;;;;;5011371;28;20686;-74
2022/05/10 11:14:22;;;;;;;0.95;0.73;;;33.50;39.80;;;;;;5009840;28;20180;-74
2022/05/10 11:17:15;;;;;;;0.70;0.70;;;33.60;39.90;;;;;;5014960;28;20184;-72
2022/05/10 11:20:13;;;;;;;3.13;0.95;;;33.80;40.90;;;;;;5012925;28;20191;-73
2022/05/10 11:23:10;;;;;;;1.00;1.00;;;33.90;40.10;;;;;;4961025;28;20190;-73
2022/05/10 11:26:04;;;;;;;0.60;0.60;;;34.00;39.20;;;;;;4944247;28;20218;-74
2022/05/10 11:29:07;;;;;;;0.50;0.50;;;34.20;39.20;;;;;;4941700;28;20250;-74
2022/05/10 11:31:54;;;;;;;0.73;0.73;;;34.20;38.90;;;;;;4950057;28;20299;-74
2022/05/10 11:34:46;;;;;;;1.50;0.82;;;34.20;40.30;;;;;;4949731;28;20300;-72
2022/05/10 11:37:20;;;;;;;0.57;0.57;;;34.30;39.60;;;;;;4950088;28;20595;-72
2022/05/10 11:40:05;;;;;;;0.65;0.65;;;34.40;40.20;;;;;;4945639;28;20194;-73
2022/05/10 11:42:32;;;;;;;0.80;0.80;;;34.40;39.10;;;;;;4948596;28;20186;-73
2022/05/10 11:45:32;;;;;;;0.80;0.80;;;34.50;39.40;;;;;;4950533;28;20194;-73
2022/05/10 11:48:04;;;;;;;0.95;0.70;;;34.90;39.40;;;;;;4943372;28;20194;-74
2022/05/10 11:50:35;;;;;;;0.80;0.60;;;35.80;38.20;;;;;;4944340;28;20198;-75
2022/05/10 11:53:49;;;;;;;1.42;0.80;;;35.90;39.20;;;;;;4946752;28;20193;-74
2022/05/10 11:56:15;;;;;;;1.23;0.60;;;36.90;39.70;;;;;;4894452;29;20277;-74
2022/05/10 11:58:41;;;;;;;3.13;0.70;;;36.90;39.80;;;;;;4896828;29;20254;-74
2022/05/10 12:01:43;;;;;;;0.80;0.80;;;37.20;38.30;;;;;;4923979;29;20560;-74
2022/05/10 12:04:48;;;;;;;0.70;0.70;;;37.50;38.00;;;;;;4928180;29;20282;-72
2022/05/10 12:07:19;;;;;;;0.70;0.70;;;37.60;37.60;;;;;;4936503;28;20677;-72
2022/05/10 12:09:57;;;;;;;0.60;0.50;;;37.80;37.20;;;;;;4930748;29;20262;-72
2022/05/10 12:12:42;;;;;;;2.28;0.70;;;37.80;37.40;;;;;;4936338;28;20897;-73
2022/05/10 12:24:13;;;;;;;0.60;0.60;;;38.30;37.60;;;;;;4933115;28;20196;-73
2022/05/10 12:26:49;;;;;;;0.50;0.50;;;38.50;36.30;;;;;;4933788;28;20205;-73
2022/05/10 12:29:36;;;;;;;1.02;0.70;;;38.50;36.80;;;;;;4932832;29;20183;-73
2022/05/10 12:32:08;;;;;;;1.38;0.60;;;38.80;35.20;;;;;;4932435;29;20226;-73
2022/05/10 12:34:37;;;;;;;0.60;0.60;;;38.80;35.20;;;;;;5027819;28;20646;-74
2022/05/10 12:37:28;;;;;;;0.80;0.80;;;38.80;34.00;;;;;;5008658;28;20176;-74
2022/05/10 12:40:08;;;;;;;0.60;0.60;;;38.80;35.30;;;;;;5015563;28;20688;-73
2022/05/10 12:42:49;;;;;;;0.80;0.80;;;38.90;35.90;;;;;;5010336;28;20602;-74
2022/05/10 12:45:48;;;;;;;0.77;0.77;;;39.00;36.50;;;;;;5002514;28;20188;-74
2022/05/10 12:48:33;;;;;;;0.75;0.60;;;39.00;35.10;;;;;;5005967;28;20179;-72
2022/05/10 12:51:30;;;;;;;1.60;0.70;;;38.80;35.20;;;;;;5015472;28;20701;-73
2022/05/10 12:54:34;;;;;;;0.43;0.43;;;38.80;35.00;;;;;;5004093;28;20270;-75
2022/05/10 12:57:06;;;;;;;3.05;0.98;;;38.90;34.70;;;;;;5010200;28;20184;-73
2022/05/10 12:59:41;;;;;;;0.40;0.40;;;38.90;35.50;;;;;;5012975;28;20266;-74
2022/05/10 13:02:13;;;;;;;1.27;0.80;;;39.20;35.40;;;;;;5011579;28;20195;-74
2022/05/10 13:04:45;;;;;;;0.60;0.60;;;39.10;35.60;;;;;;5011304;28;21014;-73
2022/05/10 13:07:40;;;;;;;1.20;0.65;;;39.30;34.80;;;;;;5005672;28;20640;-74
2022/05/10 13:10:16;;;;;;;1.70;0.70;;;39.60;34.30;;;;;;5024548;28;20220;-74
2022/05/10 13:12:53;;;;;;;0.68;0.68;;;40.00;34.90;;;;;;5015346;28;20633;-74
2022/05/10 13:15:21;;;;;;;1.08;1.02;;;40.10;34.90;;;;;;5005636;28;20184;-74
2022/05/10 13:17:51;;;;;;;1.77;0.93;;;40.30;36.00;;;;;;5015762;28;20294;-73
2022/05/10 13:20:25;;;;;;;3.53;0.98;;;40.30;35.50;;;;;;5027676;28;20210;-74
2022/05/10 13:23:01;;;;;;;0.82;0.82;;;40.40;35.30;;;;;;5011646;28;20215;-74
2022/05/10 13:25:33;;;;;;;2.25;1.10;;;39.80;35.20;;;;;;5043259;28;20243;-74
2022/05/10 13:28:57;;;;;;;1.85;0.70;;;38.30;37.10;;;;;;5011923;28;20243;-73
2022/05/10 13:31:27;;;;;;;1.02;0.77;;;38.20;35.80;;;;;;4971519;28;20730;-73
2022/05/10 13:34:12;;;;;;;7.85;1.10;;;35.80;38.90;;;;;;4971793;28;20691;-73
2022/05/10 13:36:41;;;;;;;2.60;1.40;;;35.70;39.00;;;;;;4970633;28;20367;-73
2022/05/10 13:39:11;;;;;;;2.38;1.10;;;33.80;41.50;;;;;;4959816;28;20220;-73